Time;durP1;ratioP1;P1;durP2;ratioP2;P2;SDS_P1;SDS_P2;PMS_P1;PMS_P2;Temp;Humidity;BMP_temperature;BMP_pressure;BME280_temperature;BME280_humidity;BME280_pressure;Samples;Min_cycle;Max_cycle;Signal;HPM_P1;HPM_P2
2022/07/28 00:02:15;;;;;;;5.88;3.25;;;;;;;;;;5025896;28;20033;-57
2022/07/28 00:04:41;;;;;;;6.18;3.58;;;;;;;;;;5029058;28;20037;-57
2022/07/28 00:07:06;;;;;;;4.15;3.40;;;;;;;;;;5024104;28;20168;-57
2022/07/28 00:09:32;;;;;;;5.03;3.45;;;;;;;;;;5025427;28;20086;-57
2022/07/28 00:11:57;;;;;;;7.03;4.18;;;;;;;;;;5026847;28;20117;-57
2022/07/28 00:14:23;;;;;;;5.57;3.40;;;;;;;;;;5026617;28;20140;-57
2022/07/28 00:16:48;;;;;;;6.68;3.65;;;;;;;;;;5024010;28;20017;-58
2022/07/28 00:19:14;;;;;;;5.32;3.22;;;;;;;;;;5025663;28;20085;-57
2022/07/28 00:21:39;;;;;;;6.15;3.58;;;;;;;;;;5026135;28;20021;-58
2022/07/28 00:24:05;;;;;;;4.32;3.80;;;;;;;;;;5026680;28;20045;-58
2022/07/28 00:26:31;;;;;;;4.85;3.58;;;;;;;;;;5026953;28;20499;-57
2022/07/28 00:28:57;;;;;;;5.18;3.42;;;;;;;;;;5025393;28;20032;-57
2022/07/28 00:31:22;;;;;;;4.38;3.50;;;;;;;;;;5025786;28;20029;-57
2022/07/28 00:33:48;;;;;;;6.10;3.50;;;;;;;;;;5029160;28;20487;-58
2022/07/28 00:36:13;;;;;;;5.65;3.60;;;;;;;;;;5025850;28;20033;-57
2022/07/28 00:38:39;;;;;;;5.78;3.60;;;;;;;;;;5027428;28;20029;-57
2022/07/28 00:41:11;;;;;;;5.70;3.60;;;;;;;;;;5027722;28;20039;-57
2022/07/28 00:43:42;;;;;;;5.35;3.50;;;;;;;;;;5028084;28;20021;-57
2022/07/28 00:46:08;;;;;;;3.45;3.13;;;;;;;;;;5026003;28;20038;-57
2022/07/28 00:48:48;;;;;;;4.38;3.42;;;;;;;;;;5025747;28;20685;-58
2022/07/28 00:51:17;;;;;;;4.40;3.53;;;;;;;;;;5023968;28;20033;-57
2022/07/28 00:53:43;;;;;;;7.82;3.92;;;;;;;;;;5027204;28;20029;-57
2022/07/28 00:56:08;;;;;;;7.53;3.70;;;;;;;;;;5024364;28;20044;-57
2022/07/28 00:58:35;;;;;;;5.57;4.35;;;;;;;;;;5026029;28;20028;-57
2022/07/28 01:01:01;;;;;;;6.75;4.32;;;;;;;;;;5027497;28;20332;-57
2022/07/28 01:03:28;;;;;;;5.20;3.83;;;;;;;;;;5027765;28;20036;-57
2022/07/28 01:06:05;;;;;;;6.63;4.53;;;;;;;;;;5024190;28;20120;-57
2022/07/28 01:09:02;;;;;;;4.50;4.10;;;;;;;;;;5024547;28;20112;-57
2022/07/28 01:11:42;;;;;;;4.95;4.45;;;;;;;;;;5024783;28;20029;-57
2022/07/28 01:14:14;;;;;;;7.65;4.20;;;;;;;;;;5024700;28;20034;-57
2022/07/28 01:16:48;;;;;;;8.10;4.57;;;;;;;;;;5027282;28;20025;-58
2022/07/28 01:19:34;;;;;;;6.05;4.65;;;;;;;;;;5025203;28;20021;-58
2022/07/28 01:22:02;;;;;;;5.97;3.83;;;;;;;;;;5023543;28;20400;-58
2022/07/28 01:24:43;;;;;;;5.28;4.10;;;;;;;;;;5025925;28;20029;-58
2022/07/28 01:27:16;;;;;;;6.45;3.92;;;;;;;;;;5026311;28;20033;-58
2022/07/28 01:30:04;;;;;;;7.57;4.25;;;;;;;;;;5024543;28;20033;-58
2022/07/28 01:32:35;;;;;;;6.32;3.75;;;;;;;;;;5023959;28;20040;-58
2022/07/28 01:35:06;;;;;;;4.80;3.70;;;;;;;;;;5028391;28;20046;-58
2022/07/28 01:37:38;;;;;;;4.75;3.78;;;;;;;;;;5025067;28;20029;-58
2022/07/28 01:40:06;;;;;;;4.65;3.70;;;;;;;;;;5027937;28;20372;-58
2022/07/28 01:42:38;;;;;;;5.75;4.10;;;;;;;;;;5024434;28;20033;-57
2022/07/28 01:45:06;;;;;;;5.15;3.88;;;;;;;;;;5024951;28;20036;-58
2022/07/28 01:47:34;;;;;;;7.97;4.18;;;;;;;;;;5023897;28;20022;-57
2022/07/28 01:50:04;;;;;;;8.55;4.20;;;;;;;;;;5026957;28;20033;-58
2022/07/28 01:52:30;;;;;;;5.05;4.13;;;;;;;;;;5026244;28;20107;-57
2022/07/28 01:54:57;;;;;;;7.32;4.05;;;;;;;;;;5025577;28;20025;-57
2022/07/28 01:57:26;;;;;;;5.95;4.10;;;;;;;;;;5024488;28;20247;-57
2022/07/28 01:59:53;;;;;;;5.73;4.20;;;;;;;;;;5026257;28;20079;-57
2022/07/28 02:02:20;;;;;;;7.70;4.55;;;;;;;;;;5024316;28;20113;-57
2022/07/28 02:04:47;;;;;;;6.10;4.28;;;;;;;;;;5026812;28;20720;-58
2022/07/28 02:07:13;;;;;;;6.53;4.70;;;;;;;;;;5023203;28;20546;-57
2022/07/28 02:09:40;;;;;;;4.57;4.18;;;;;;;;;;5024107;28;20037;-57
2022/07/28 02:12:07;;;;;;;6.75;4.55;;;;;;;;;;5026021;28;20380;-57
2022/07/28 02:14:35;;;;;;;7.65;4.75;;;;;;;;;;5024711;28;20053;-58
2022/07/28 02:17:13;;;;;;;8.15;4.93;;;;;;;;;;5022974;28;20029;-57
2022/07/28 02:19:41;;;;;;;5.68;4.72;;;;;;;;;;5025267;28;20040;-58
2022/07/28 02:22:08;;;;;;;6.75;4.18;;;;;;;;;;5024960;28;20087;-57
2022/07/28 02:24:34;;;;;;;8.77;4.90;;;;;;;;;;5025271;28;20026;-57
2022/07/28 02:27:04;;;;;;;5.40;4.47;;;;;;;;;;5023600;28;20098;-58
2022/07/28 02:29:35;;;;;;;6.47;5.00;;;;;;;;;;5024825;28;20029;-57
2022/07/28 02:32:07;;;;;;;7.97;5.35;;;;;;;;;;5025008;28;20033;-58
2022/07/28 02:34:37;;;;;;;6.85;4.90;;;;;;;;;;5023860;28;20022;-57
2022/07/28 02:37:04;;;;;;;6.80;5.20;;;;;;;;;;5025612;28;20061;-58
2022/07/28 02:39:39;;;;;;;8.82;5.38;;;;;;;;;;5027547;28;20130;-57
2022/07/28 02:42:09;;;;;;;5.68;4.60;;;;;;;;;;5026478;28;20033;-58
2022/07/28 02:44:40;;;;;;;7.50;5.15;;;;;;;;;;5025528;28;20022;-57
2022/07/28 02:47:09;;;;;;;7.13;5.63;;;;;;;;;;5026222;28;20037;-58
2022/07/28 02:49:36;;;;;;;5.38;4.88;;;;;;;;;;5030776;28;20486;-57
2022/07/28 02:52:05;;;;;;;7.60;5.28;;;;;;;;;;5024054;28;20044;-58
2022/07/28 02:54:31;;;;;;;7.25;5.00;;;;;;;;;;5027286;28;20048;-58
2022/07/28 02:56:58;;;;;;;8.45;5.10;;;;;;;;;;5030150;28;20242;-58
2022/07/28 02:59:26;;;;;;;7.75;5.60;;;;;;;;;;5027995;28;20451;-58
2022/07/28 03:01:53;;;;;;;6.70;5.05;;;;;;;;;;5026864;28;20029;-57
2022/07/28 03:05:06;;;;;;;6.57;5.45;;;;;;;;;;5028073;28;20065;-58
2022/07/28 03:07:05;;;;;;;9.90;5.32;;;;;;;;;;5025333;28;20124;-57
2022/07/28 03:09:37;;;;;;;9.30;5.45;;;;;;;;;;5028291;28;20116;-58
2022/07/28 03:12:03;;;;;;;6.22;5.13;;;;;;;;;;5026285;28;20037;-57
2022/07/28 03:14:28;;;;;;;9.32;5.60;;;;;;;;;;5027460;28;20033;-58
2022/07/28 03:16:54;;;;;;;7.15;5.20;;;;;;;;;;5028625;28;20018;-58
2022/07/28 03:19:19;;;;;;;7.03;5.30;;;;;;;;;;5028309;28;20486;-57
2022/07/28 03:21:48;;;;;;;8.25;5.05;;;;;;;;;;5024944;28;20057;-57
2022/07/28 03:24:16;;;;;;;7.77;5.50;;;;;;;;;;5026920;28;20025;-58
2022/07/28 03:26:48;;;;;;;10.70;5.30;;;;;;;;;;5027667;28;20463;-58
2022/07/28 03:29:16;;;;;;;7.53;5.60;;;;;;;;;;5027555;28;20104;-57
2022/07/28 03:31:43;;;;;;;7.97;5.38;;;;;;;;;;5027283;28;20507;-58
2022/07/28 03:34:10;;;;;;;6.20;5.18;;;;;;;;;;5026861;28;20033;-57
2022/07/28 03:36:41;;;;;;;9.45;5.88;;;;;;;;;;5028142;28;20033;-57
2022/07/28 03:39:10;;;;;;;8.02;5.38;;;;;;;;;;5029981;28;20034;-58
2022/07/28 03:41:37;;;;;;;9.60;5.47;;;;;;;;;;5026434;28;20029;-58
2022/07/28 03:44:04;;;;;;;11.40;6.00;;;;;;;;;;5024859;28;20120;-58
2022/07/28 03:46:31;;;;;;;7.70;5.72;;;;;;;;;;5028383;28;20080;-57
2022/07/28 03:48:56;;;;;;;7.72;5.72;;;;;;;;;;5027081;28;20142;-57
2022/07/28 03:51:24;;;;;;;9.07;5.68;;;;;;;;;;5024384;28;22302;-58
2022/07/28 03:53:50;;;;;;;8.27;6.32;;;;;;;;;;5027715;28;20033;-57
2022/07/28 03:56:15;;;;;;;7.15;5.60;;;;;;;;;;5026889;28;20517;-57
2022/07/28 03:58:41;;;;;;;6.45;5.38;;;;;;;;;;5026145;28;20029;-57
2022/07/28 04:01:06;;;;;;;8.43;5.72;;;;;;;;;;5027397;28;20116;-58
2022/07/28 04:03:31;;;;;;;9.70;5.93;;;;;;;;;;5027665;28;20107;-55
2022/07/28 04:05:57;;;;;;;8.07;6.00;;;;;;;;;;5024997;28;20029;-54
2022/07/28 04:08:22;;;;;;;6.28;5.35;;;;;;;;;;5026857;28;20481;-55
2022/07/28 04:10:48;;;;;;;7.32;5.53;;;;;;;;;;5025461;28;20029;-54
2022/07/28 04:13:13;;;;;;;12.65;5.75;;;;;;;;;;5025872;28;20038;-55
2022/07/28 04:15:39;;;;;;;10.48;6.25;;;;;;;;;;5028598;28;20026;-54
2022/07/28 04:18:04;;;;;;;10.30;6.00;;;;;;;;;;5025843;28;20029;-54
2022/07/28 04:20:30;;;;;;;9.65;6.65;;;;;;;;;;5026613;28;20021;-54
2022/07/28 04:22:55;;;;;;;8.93;6.25;;;;;;;;;;5026716;28;20491;-55
2022/07/28 04:25:23;;;;;;;9.75;6.45;;;;;;;;;;5026628;28;20056;-55
2022/07/28 04:27:49;;;;;;;9.00;6.60;;;;;;;;;;5028363;28;20025;-55
2022/07/28 04:30:17;;;;;;;8.70;5.97;;;;;;;;;;5024962;28;20391;-54
2022/07/28 04:32:47;;;;;;;8.15;6.38;;;;;;;;;;5024432;28;20516;-54
2022/07/28 04:35:14;;;;;;;8.05;6.15;;;;;;;;;;5028709;28;20506;-55
2022/07/28 04:37:40;;;;;;;12.23;6.72;;;;;;;;;;5026535;28;20480;-56
2022/07/28 04:40:08;;;;;;;11.95;7.47;;;;;;;;;;5029414;28;20060;-55
2022/07/28 04:42:34;;;;;;;9.63;6.93;;;;;;;;;;5025854;28;20068;-55
2022/07/28 04:45:00;;;;;;;9.75;6.65;;;;;;;;;;5028165;28;20510;-55
2022/07/28 04:47:27;;;;;;;9.15;6.60;;;;;;;;;;5026875;28;20025;-55
2022/07/28 04:49:53;;;;;;;11.48;6.70;;;;;;;;;;5028478;28;20021;-55
2022/07/28 04:52:19;;;;;;;11.45;7.55;;;;;;;;;;5023639;28;20492;-55
2022/07/28 04:54:45;;;;;;;9.20;7.30;;;;;;;;;;5026279;28;20040;-55
2022/07/28 04:57:10;;;;;;;10.68;7.43;;;;;;;;;;5025197;28;20029;-55
2022/07/28 04:59:36;;;;;;;10.85;7.68;;;;;;;;;;5025385;28;20029;-55
2022/07/28 05:02:02;;;;;;;10.65;7.57;;;;;;;;;;5022930;28;20026;-55
2022/07/28 05:04:27;;;;;;;10.63;7.85;;;;;;;;;;5025047;28;20509;-55
2022/07/28 05:06:53;;;;;;;13.25;8.20;;;;;;;;;;5026107;28;20467;-58
2022/07/28 05:09:19;;;;;;;13.27;7.78;;;;;;;;;;5027089;28;20371;-58
2022/07/28 05:11:44;;;;;;;10.88;7.53;;;;;;;;;;5018926;28;20064;-58
2022/07/28 05:14:09;;;;;;;10.85;7.45;;;;;;;;;;5021313;28;20033;-58
2022/07/28 05:16:35;;;;;;;11.95;7.90;;;;;;;;;;5025465;28;20029;-58
2022/07/28 05:19:00;;;;;;;10.32;7.90;;;;;;;;;;5026867;28;20029;-58
2022/07/28 05:21:26;;;;;;;12.18;8.32;;;;;;;;;;5025386;28;20406;-58
2022/07/28 05:23:52;;;;;;;14.13;8.75;;;;;;;;;;5022408;28;20028;-58
2022/07/28 05:26:17;;;;;;;13.63;8.52;;;;;;;;;;5025323;28;20021;-58
2022/07/28 05:28:42;;;;;;;21.85;9.85;;;;;;;;;;5026048;28;20518;-59
2022/07/28 05:31:08;;;;;;;14.85;8.90;;;;;;;;;;5024020;28;20059;-59
2022/07/28 05:33:34;;;;;;;11.82;7.45;;;;;;;;;;5023792;28;20037;-58
2022/07/28 05:36:00;;;;;;;13.65;8.68;;;;;;;;;;5024082;28;20056;-58
2022/07/28 05:38:26;;;;;;;12.55;8.27;;;;;;;;;;5024608;28;20068;-58
2022/07/28 05:40:52;;;;;;;14.73;8.02;;;;;;;;;;5029736;28;20075;-58
2022/07/28 05:43:18;;;;;;;11.10;7.80;;;;;;;;;;5026607;28;20486;-58
2022/07/28 05:45:44;;;;;;;12.27;7.93;;;;;;;;;;5024758;28;20476;-58
2022/07/28 05:48:09;;;;;;;11.20;7.45;;;;;;;;;;5024279;28;20044;-58
2022/07/28 05:50:35;;;;;;;12.02;8.05;;;;;;;;;;5024361;28;20029;-58
2022/07/28 05:53:00;;;;;;;15.85;7.57;;;;;;;;;;5021734;28;20036;-58
2022/07/28 05:55:26;;;;;;;15.65;7.75;;;;;;;;;;5021926;28;20128;-58
2022/07/28 05:57:52;;;;;;;10.35;6.85;;;;;;;;;;5023720;28;20086;-58
2022/07/28 06:00:20;;;;;;;11.75;7.82;;;;;;;;;;5024401;28;20495;-58
2022/07/28 06:02:49;;;;;;;15.75;8.30;;;;;;;;;;5023528;28;20029;-58
2022/07/28 06:05:18;;;;;;;;;;;;;;;;;;5020848;28;20025;-59
2022/07/28 06:07:45;;;;;;;10.13;6.63;;;;;;;;;;5019602;28;19914;-58
2022/07/28 06:10:16;;;;;;;10.88;7.28;;;;;;;;;;5021081;28;20105;-58
2022/07/28 06:12:47;;;;;;;10.88;7.28;;;;;;;;;;5018616;28;20558;-59
2022/07/28 06:15:26;;;;;;;10.65;6.40;;;;;;;;;;5021838;28;20051;-59
2022/07/28 06:17:56;;;;;;;9.48;6.32;;;;;;;;;;5022857;28;20033;-59
2022/07/28 06:20:23;;;;;;;9.75;6.53;;;;;;;;;;5023831;28;20096;-58
2022/07/28 06:22:51;;;;;;;9.75;7.07;;;;;;;;;;5021619;28;20048;-58
2022/07/28 06:25:20;;;;;;;12.20;6.90;;;;;;;;;;5024854;28;20034;-58
2022/07/28 06:27:47;;;;;;;11.13;7.05;;;;;;;;;;5024282;28;20033;-58
2022/07/28 06:30:13;;;;;;;11.38;7.13;;;;;;;;;;5023706;28;20128;-58
2022/07/28 06:32:39;;;;;;;12.75;7.00;;;;;;;;;;5024081;28;20078;-58
2022/07/28 06:35:05;;;;;;;12.00;6.97;;;;;;;;;;5029923;28;20025;-58
2022/07/28 06:37:30;;;;;;;11.55;6.38;;;;;;;;;;5030230;28;20505;-58
2022/07/28 06:39:56;;;;;;;7.95;6.30;;;;;;;;;;5027991;28;20124;-58
2022/07/28 06:42:21;;;;;;;10.10;6.28;;;;;;;;;;5026533;28;20052;-58
2022/07/28 06:44:49;;;;;;;10.05;6.82;;;;;;;;;;5028842;28;20025;-58
2022/07/28 06:47:14;;;;;;;11.38;7.05;;;;;;;;;;5026242;28;20030;-58
2022/07/28 06:49:39;;;;;;;10.25;6.28;;;;;;;;;;5027907;28;20544;-58
2022/07/28 06:52:05;;;;;;;10.00;6.40;;;;;;;;;;5023828;28;20442;-58
2022/07/28 06:54:30;;;;;;;17.02;7.38;;;;;;;;;;5026795;28;20022;-58
2022/07/28 06:56:56;;;;;;;14.50;6.90;;;;;;;;;;5026777;28;20031;-59
2022/07/28 06:59:21;;;;;;;8.57;6.72;;;;;;;;;;5027063;28;20038;-58
2022/07/28 07:01:47;;;;;;;10.50;7.18;;;;;;;;;;5024696;28;20403;-59
2022/07/28 07:04:13;;;;;;;11.00;6.78;;;;;;;;;;5025868;28;20030;-58
2022/07/28 07:06:38;;;;;;;13.27;7.15;;;;;;;;;;5025644;28;20036;-59
2022/07/28 07:09:03;;;;;;;12.90;8.60;;;;;;;;;;5027925;28;20141;-58
2022/07/28 07:11:29;;;;;;;11.18;7.88;;;;;;;;;;5027373;28;20029;-59
2022/07/28 07:13:54;;;;;;;11.00;8.10;;;;;;;;;;5027069;28;20483;-58
2022/07/28 07:16:20;;;;;;;13.27;7.35;;;;;;;;;;5027441;28;20040;-58
2022/07/28 07:18:47;;;;;;;11.73;7.40;;;;;;;;;;5028161;28;20075;-58
2022/07/28 07:21:13;;;;;;;11.00;7.35;;;;;;;;;;5028403;28;20025;-58
2022/07/28 07:23:38;;;;;;;9.65;7.30;;;;;;;;;;5023276;28;20030;-58
2022/07/28 07:26:04;;;;;;;14.13;8.02;;;;;;;;;;5027494;28;20057;-58
2022/07/28 07:28:29;;;;;;;11.60;7.65;;;;;;;;;;5027265;28;20053;-58
2022/07/28 07:30:55;;;;;;;15.32;7.80;;;;;;;;;;5028792;28;20029;-59
2022/07/28 07:33:20;;;;;;;11.18;7.47;;;;;;;;;;5028961;28;20036;-58
2022/07/28 07:35:45;;;;;;;12.05;8.18;;;;;;;;;;5030103;28;20064;-58
2022/07/28 07:38:11;;;;;;;12.57;9.05;;;;;;;;;;5026952;28;20495;-58
2022/07/28 07:40:37;;;;;;;12.10;8.73;;;;;;;;;;5023630;28;20327;-58
2022/07/28 07:43:03;;;;;;;13.18;8.77;;;;;;;;;;5024759;28;20506;-58
2022/07/28 07:45:28;;;;;;;16.35;9.30;;;;;;;;;;5027739;28;20079;-58
2022/07/28 07:47:54;;;;;;;13.25;8.65;;;;;;;;;;5028819;28;20029;-58
2022/07/28 07:50:19;;;;;;;14.48;9.32;;;;;;;;;;5029592;28;20033;-59
2022/07/28 07:52:45;;;;;;;16.27;10.05;;;;;;;;;;5026037;28;20041;-58
2022/07/28 07:55:10;;;;;;;16.05;10.05;;;;;;;;;;5026668;28;20029;-58
2022/07/28 07:57:35;;;;;;;16.13;9.27;;;;;;;;;;5026090;28;20030;-58
2022/07/28 08:00:01;;;;;;;19.42;10.55;;;;;;;;;;5025216;28;20040;-58
2022/07/28 08:02:27;;;;;;;17.88;9.98;;;;;;;;;;5024203;28;20034;-58
2022/07/28 08:04:54;;;;;;;12.38;9.75;;;;;;;;;;5024327;28;20036;-58
2022/07/28 08:07:19;;;;;;;15.82;9.27;;;;;;;;;;5026433;28;20029;-58
2022/07/28 08:09:45;;;;;;;13.73;9.20;;;;;;;;;;5025901;28;20025;-58
2022/07/28 08:12:10;;;;;;;14.25;9.73;;;;;;;;;;5025584;28;20033;-58
2022/07/28 08:14:36;;;;;;;16.60;9.20;;;;;;;;;;5025253;28;20118;-58
2022/07/28 08:17:01;;;;;;;13.48;9.80;;;;;;;;;;5023590;28;20053;-58
2022/07/28 08:19:26;;;;;;;14.25;10.38;;;;;;;;;;5027908;28;20074;-58
2022/07/28 08:21:52;;;;;;;16.65;11.27;;;;;;;;;;5029086;28;20537;-58
2022/07/28 08:24:17;;;;;;;16.20;10.20;;;;;;;;;;5026675;28;20075;-58
2022/07/28 08:26:43;;;;;;;17.20;10.35;;;;;;;;;;5025123;28;20303;-58
2022/07/28 08:29:08;;;;;;;14.88;10.70;;;;;;;;;;5027725;28;20491;-58
2022/07/28 08:31:34;;;;;;;20.58;11.73;;;;;;;;;;5028480;28;20527;-58
2022/07/28 08:34:00;;;;;;;13.55;10.20;;;;;;;;;;5028806;28;20033;-58
2022/07/28 08:36:25;;;;;;;16.30;10.77;;;;;;;;;;5026367;28;20033;-58
2022/07/28 08:38:51;;;;;;;15.25;9.93;;;;;;;;;;5025706;28;20033;-58
2022/07/28 08:41:25;;;;;;;16.08;9.82;;;;;;;;;;5026401;28;20388;-58
2022/07/28 08:43:51;;;;;;;14.43;10.88;;;;;;;;;;5026888;28;20440;-58
2022/07/28 08:46:19;;;;;;;17.17;10.90;;;;;;;;;;5022825;28;20044;-58
2022/07/28 08:48:46;;;;;;;16.95;10.75;;;;;;;;;;5027840;28;20029;-58
2022/07/28 08:51:12;;;;;;;16.00;11.00;;;;;;;;;;5026921;28;20026;-58
2022/07/28 08:53:39;;;;;;;14.43;10.43;;;;;;;;;;5024641;28;20044;-58
2022/07/28 08:56:07;;;;;;;15.43;10.38;;;;;;;;;;5022756;28;20025;-58
2022/07/28 08:58:34;;;;;;;13.23;10.18;;;;;;;;;;5026025;28;20076;-58
2022/07/28 09:01:00;;;;;;;16.00;10.40;;;;;;;;;;5024499;28;20021;-58
2022/07/28 09:03:27;;;;;;;16.95;11.35;;;;;;;;;;5026744;28;20026;-58
2022/07/28 09:05:54;;;;;;;15.70;10.18;;;;;;;;;;5026997;28;20044;-58
2022/07/28 09:08:19;;;;;;;13.32;10.02;;;;;;;;;;5025039;28;20104;-58
2022/07/28 09:10:46;;;;;;;14.23;10.23;;;;;;;;;;5027482;28;20175;-58
2022/07/28 09:13:11;;;;;;;12.30;9.38;;;;;;;;;;5026552;28;20144;-58
2022/07/28 09:15:37;;;;;;;15.50;9.85;;;;;;;;;;5024885;28;20041;-59
2022/07/28 09:18:03;;;;;;;13.55;10.18;;;;;;;;;;5022594;28;20117;-59
2022/07/28 09:20:29;;;;;;;11.35;9.27;;;;;;;;;;5024056;28;20017;-59
2022/07/28 09:23:03;;;;;;;18.13;11.18;;;;;;;;;;5022993;28;20390;-59
2022/07/28 09:25:30;;;;;;;14.05;9.90;;;;;;;;;;5025760;28;20533;-59
2022/07/28 09:28:11;;;;;;;13.88;9.85;;;;;;;;;;5025626;28;20206;-59
2022/07/28 09:30:40;;;;;;;16.33;9.63;;;;;;;;;;5024192;28;20037;-59
2022/07/28 09:33:17;;;;;;;;;;;;;;;;;;5027490;28;20041;-59
2022/07/28 09:35:47;;;;;;;14.00;8.75;;;;;;;;;;5027000;28;19987;-59
2022/07/28 09:38:13;;;;;;;12.02;9.18;;;;;;;;;;5025927;28;20036;-59
2022/07/28 09:40:39;;;;;;;10.18;8.38;;;;;;;;;;5023734;28;20025;-59
2022/07/28 09:43:05;;;;;;;9.73;8.05;;;;;;;;;;5022905;28;20029;-59
2022/07/28 09:45:30;;;;;;;11.23;9.15;;;;;;;;;;5023943;28;20378;-59
2022/07/28 09:48:16;;;;;;;13.02;9.40;;;;;;;;;;5025895;28;20029;-58
2022/07/28 09:50:42;;;;;;;11.00;8.43;;;;;;;;;;5021909;28;20419;-58
2022/07/28 09:53:25;;;;;;;20.40;8.95;;;;;;;;;;5025078;28;20581;-58
2022/07/28 09:55:59;;;;;;;14.75;8.70;;;;;;;;;;5021336;28;20025;-58
2022/07/28 09:58:26;;;;;;;11.77;8.32;;;;;;;;;;5024765;28;20056;-58
2022/07/28 10:01:12;;;;;;;11.10;7.10;;;;;;;;;;5025146;28;20022;-58
2022/07/28 10:03:47;;;;;;;7.50;6.55;;;;;;;;;;5022716;28;20096;-59
2022/07/28 10:06:14;;;;;;;8.95;5.78;;;;;;;;;;5027542;28;20285;-59
2022/07/28 10:08:42;;;;;;;9.65;6.70;;;;;;;;;;5027396;28;20025;-59
2022/07/28 10:11:07;;;;;;;8.02;6.65;;;;;;;;;;5024633;28;20033;-59
2022/07/28 10:13:34;;;;;;;14.02;7.68;;;;;;;;;;5026853;28;20025;-59
2022/07/28 10:16:11;;;;;;;8.93;6.35;;;;;;;;;;5027190;28;20036;-59
2022/07/28 10:18:40;;;;;;;7.35;6.05;;;;;;;;;;5028912;28;20021;-59
2022/07/28 10:21:08;;;;;;;11.00;5.65;;;;;;;;;;5027361;28;20119;-59
2022/07/28 10:23:38;;;;;;;8.80;6.32;;;;;;;;;;5029596;28;20110;-59
2022/07/28 10:26:09;;;;;;;8.57;6.18;;;;;;;;;;5028316;28;20025;-59
2022/07/28 10:28:45;;;;;;;7.13;5.68;;;;;;;;;;5027502;28;20025;-59
2022/07/28 10:31:13;;;;;;;5.90;5.40;;;;;;;;;;5029473;28;20033;-59
2022/07/28 10:33:45;;;;;;;8.27;5.77;;;;;;;;;;5029877;28;20033;-58
2022/07/28 10:36:12;;;;;;;7.85;5.35;;;;;;;;;;5028925;28;20748;-59
2022/07/28 10:38:39;;;;;;;8.43;5.50;;;;;;;;;;5029559;28;20014;-57
2022/07/28 10:41:07;;;;;;;8.68;5.93;;;;;;;;;;5029236;28;20475;-56
2022/07/28 10:43:34;;;;;;;6.37;5.23;;;;;;;;;;5028702;28;20034;-56
2022/07/28 10:46:00;;;;;;;7.20;6.10;;;;;;;;;;5029205;28;20359;-56
2022/07/28 10:48:26;;;;;;;6.93;5.75;;;;;;;;;;5029803;28;20033;-56
2022/07/28 10:50:53;;;;;;;10.38;5.88;;;;;;;;;;5030050;28;20372;-56
2022/07/28 10:53:52;;;;;;;6.85;5.70;;;;;;;;;;5029819;28;20399;-56
2022/07/28 10:56:26;;;;;;;13.05;6.00;;;;;;;;;;5027424;28;20041;-55
2022/07/28 10:59:01;;;;;;;10.75;5.63;;;;;;;;;;5029254;28;20037;-56
2022/07/28 11:01:39;;;;;;;13.25;6.30;;;;;;;;;;5025795;28;20018;-56
2022/07/28 11:04:06;;;;;;;8.60;5.80;;;;;;;;;;5027754;28;20029;-55
2022/07/28 11:06:38;;;;;;;6.03;5.43;;;;;;;;;;5027276;28;20490;-56
2022/07/28 11:09:16;;;;;;;10.05;5.60;;;;;;;;;;5029429;28;20057;-57
2022/07/28 11:11:50;;;;;;;7.80;5.28;;;;;;;;;;5026974;28;20078;-57
2022/07/28 11:14:34;;;;;;;6.78;4.82;;;;;;;;;;5027693;28;20034;-56
2022/07/28 11:17:02;;;;;;;6.32;5.70;;;;;;;;;;5023761;28;20028;-57
2022/07/28 11:19:29;;;;;;;5.97;5.38;;;;;;;;;;5029713;28;20025;-56
2022/07/28 11:22:13;;;;;;;9.52;6.13;;;;;;;;;;5028591;28;20033;-56
2022/07/28 11:25:00;;;;;;;8.93;5.80;;;;;;;;;;5028334;28;20475;-56
2022/07/28 11:27:49;;;;;;;8.80;6.05;;;;;;;;;;5026083;28;20028;-55
2022/07/28 11:30:35;;;;;;;10.60;5.95;;;;;;;;;;5023680;28;20053;-55
2022/07/28 11:33:02;;;;;;;6.75;5.57;;;;;;;;;;5026208;28;20121;-55
2022/07/28 11:35:39;;;;;;;6.18;5.20;;;;;;;;;;5025724;28;20451;-56
2022/07/28 11:38:06;;;;;;;9.95;5.40;;;;;;;;;;5023983;28;20026;-55
2022/07/28 11:40:38;;;;;;;6.05;4.85;;;;;;;;;;5027927;28;20033;-55
2022/07/28 11:45:48;;;;;;;10.57;5.68;;;;;;;;;;5026427;28;20129;-55
2022/07/28 11:48:22;;;;;;;9.07;5.57;;;;;;;;;;5025746;28;20056;-56
2022/07/28 11:51:02;;;;;;;7.80;5.60;;;;;;;;;;5023921;28;20053;-55
2022/07/28 11:53:54;;;;;;;8.63;5.63;;;;;;;;;;5026731;28;20172;-55
2022/07/28 11:56:27;;;;;;;7.32;5.78;;;;;;;;;;5024313;28;20495;-55
2022/07/28 11:59:12;;;;;;;9.07;5.63;;;;;;;;;;5027090;28;20446;-55
2022/07/28 12:01:50;;;;;;;8.43;5.20;;;;;;;;;;5023447;28;20148;-56
2022/07/28 12:04:17;;;;;;;7.80;5.75;;;;;;;;;;5027633;28;20124;-55
2022/07/28 12:06:43;;;;;;;8.52;5.53;;;;;;;;;;5027889;28;20025;-55
2022/07/28 12:09:09;;;;;;;7.82;5.30;;;;;;;;;;5024335;28;20038;-55
2022/07/28 12:11:40;;;;;;;6.20;5.60;;;;;;;;;;5024226;28;20037;-57
2022/07/28 12:14:05;;;;;;;7.78;5.72;;;;;;;;;;5024985;28;20124;-56
2022/07/28 12:16:32;;;;;;;7.20;5.30;;;;;;;;;;5023975;28;20160;-56
2022/07/28 12:18:59;;;;;;;7.20;5.50;;;;;;;;;;5025623;28;20025;-56
2022/07/28 12:21:38;;;;;;;10.05;5.93;;;;;;;;;;5025048;28;20044;-56
2022/07/28 12:24:05;;;;;;;9.43;5.47;;;;;;;;;;5028095;28;20483;-56
2022/07/28 12:26:39;;;;;;;11.13;5.75;;;;;;;;;;5026513;28;20782;-56
2022/07/28 12:29:05;;;;;;;6.88;5.72;;;;;;;;;;5028892;28;20155;-56
2022/07/28 12:31:32;;;;;;;10.27;5.70;;;;;;;;;;5026786;28;20033;-56
2022/07/28 12:34:10;;;;;;;7.38;5.88;;;;;;;;;;5026762;28;20115;-56
2022/07/28 12:36:36;;;;;;;8.52;6.20;;;;;;;;;;5027346;28;20026;-56
2022/07/28 12:39:05;;;;;;;8.18;5.95;;;;;;;;;;5026755;28;20048;-60
2022/07/28 12:41:34;;;;;;;10.05;5.72;;;;;;;;;;5023126;28;20025;-56
2022/07/28 12:44:02;;;;;;;11.65;6.10;;;;;;;;;;5025577;28;20029;-56
2022/07/28 12:46:29;;;;;;;8.13;6.25;;;;;;;;;;5025786;28;20451;-56
2022/07/28 12:48:56;;;;;;;9.30;6.10;;;;;;;;;;5025514;28;20037;-56
2022/07/28 12:51:33;;;;;;;6.55;5.82;;;;;;;;;;5025451;28;20487;-56
2022/07/28 12:54:03;;;;;;;8.75;5.88;;;;;;;;;;5023491;28;20719;-56
2022/07/28 12:56:29;;;;;;;8.25;5.75;;;;;;;;;;5024292;28;20491;-56
2022/07/28 12:59:09;;;;;;;6.93;5.63;;;;;;;;;;5024846;28;20017;-56
2022/07/28 13:01:48;;;;;;;9.57;6.88;;;;;;;;;;5022723;28;20074;-56
2022/07/28 13:04:14;;;;;;;10.52;6.05;;;;;;;;;;5023944;28;20029;-56
2022/07/28 13:06:40;;;;;;;10.18;6.15;;;;;;;;;;5024165;28;20021;-56
2022/07/28 13:09:06;;;;;;;7.90;5.85;;;;;;;;;;5026579;28;20045;-56
2022/07/28 13:11:32;;;;;;;8.25;6.57;;;;;;;;;;5022666;28;20078;-56
2022/07/28 13:13:57;;;;;;;8.15;6.28;;;;;;;;;;5025097;28;20443;-56
2022/07/28 13:16:25;;;;;;;8.90;6.60;;;;;;;;;;5023695;28;20029;-56
2022/07/28 13:18:54;;;;;;;10.03;6.50;;;;;;;;;;5025789;28;20025;-56
2022/07/28 13:21:56;;;;;;;10.23;5.88;;;;;;;;;;5024384;28;20032;-56
2022/07/28 13:24:22;;;;;;;7.72;6.03;;;;;;;;;;4983365;28;20558;-56
2022/07/28 13:26:47;;;;;;;11.68;6.25;;;;;;;;;;5017429;28;20128;-56
2022/07/28 13:29:13;;;;;;;6.93;6.22;;;;;;;;;;5024070;28;20028;-56
2022/07/28 13:31:39;;;;;;;6.43;5.82;;;;;;;;;;5021393;28;20487;-56
2022/07/28 13:34:07;;;;;;;7.07;6.22;;;;;;;;;;5024439;28;20386;-56
2022/07/28 13:36:34;;;;;;;7.05;6.13;;;;;;;;;;5026255;28;20036;-56
2022/07/28 13:38:59;;;;;;;8.32;6.18;;;;;;;;;;5025583;28;20032;-56
2022/07/28 13:41:25;;;;;;;7.93;6.07;;;;;;;;;;5022986;28;20418;-55
2022/07/28 13:43:51;;;;;;;8.88;5.88;;;;;;;;;;5027286;28;20028;-58
2022/07/28 13:46:17;;;;;;;11.07;6.25;;;;;;;;;;5024163;28;20079;-58
2022/07/28 13:48:43;;;;;;;9.18;6.50;;;;;;;;;;5026524;28;20021;-58
2022/07/28 13:51:09;;;;;;;8.55;6.00;;;;;;;;;;5018091;28;20041;-58
2022/07/28 13:53:36;;;;;;;6.95;6.03;;;;;;;;;;5024089;28;20495;-59
2022/07/28 13:56:02;;;;;;;8.07;5.90;;;;;;;;;;5024249;28;20530;-58
2022/07/28 13:58:27;;;;;;;9.23;6.30;;;;;;;;;;5024285;28;20025;-58
2022/07/28 14:00:53;;;;;;;9.88;6.40;;;;;;;;;;5022909;28;20061;-58
2022/07/28 14:03:18;;;;;;;9.15;5.85;;;;;;;;;;5022585;28;20121;-58
2022/07/28 14:05:44;;;;;;;8.77;6.10;;;;;;;;;;5023218;28;20036;-58
2022/07/28 14:08:11;;;;;;;7.95;5.85;;;;;;;;;;5025260;28;20068;-57
2022/07/28 14:10:36;;;;;;;7.85;5.85;;;;;;;;;;5022344;28;20041;-57
2022/07/28 14:13:02;;;;;;;6.93;5.30;;;;;;;;;;5022053;28;20466;-58
2022/07/28 14:15:27;;;;;;;8.60;5.85;;;;;;;;;;5025346;28;20033;-58
2022/07/28 14:17:52;;;;;;;10.88;5.88;;;;;;;;;;5023985;28;20028;-57
2022/07/28 14:20:18;;;;;;;7.43;5.78;;;;;;;;;;5024349;28;20583;-58
2022/07/28 14:22:44;;;;;;;6.97;6.10;;;;;;;;;;5021260;28;20040;-59
2022/07/28 14:25:10;;;;;;;6.15;5.45;;;;;;;;;;5027328;28;20037;-60
2022/07/28 14:27:35;;;;;;;6.43;5.78;;;;;;;;;;5026584;28;20490;-58
2022/07/28 14:30:02;;;;;;;8.30;6.30;;;;;;;;;;5025221;28;20063;-57
2022/07/28 14:32:27;;;;;;;9.00;5.75;;;;;;;;;;5022740;28;20080;-58
2022/07/28 14:34:52;;;;;;;7.88;6.15;;;;;;;;;;5026878;28;20029;-58
2022/07/28 14:37:18;;;;;;;8.65;5.82;;;;;;;;;;5023890;28;20030;-58
2022/07/28 14:39:43;;;;;;;9.52;6.47;;;;;;;;;;5026914;28;20075;-58
2022/07/28 14:42:09;;;;;;;7.75;6.35;;;;;;;;;;5022447;28;20116;-58
2022/07/28 14:44:34;;;;;;;6.95;6.00;;;;;;;;;;5026086;28;20460;-58
2022/07/28 14:47:00;;;;;;;10.00;6.30;;;;;;;;;;5024970;28;20067;-60
2022/07/28 14:49:25;;;;;;;9.48;6.25;;;;;;;;;;5009666;28;20056;-60